Time;durP1;ratioP1;P1;durP2;ratioP2;P2;SDS_P1;SDS_P2;PMS_P1;PMS_P2;Temp;Humidity;BMP_temperature;BMP_pressure;BME280_temperature;BME280_humidity;BME280_pressure;Samples;Min_cycle;Max_cycle;Signal;HPM_P1;HPM_P2
2022/02/28 00:01:23;;;;;;;18.17;8.77;;;0.30;53.70;;;;;;5006007;28;20191;-59
2022/02/28 00:03:54;;;;;;;19.03;10.20;;;0.30;53.70;;;;;;4987963;28;20190;-57
2022/02/28 00:06:20;;;;;;;17.00;8.90;;;0.30;53.70;;;;;;4989295;28;20524;-59
2022/02/28 00:08:46;;;;;;;17.90;9.20;;;0.30;53.80;;;;;;4987818;28;20813;-60
2022/02/28 00:11:12;;;;;;;17.37;9.57;;;0.30;53.80;;;;;;4988551;28;20326;-59
2022/02/28 00:13:38;;;;;;;18.80;9.70;;;0.20;53.80;;;;;;4985781;28;20501;-58
2022/02/28 00:16:05;;;;;;;14.50;8.67;;;0.20;54.00;;;;;;4981572;28;21558;-59
2022/02/28 00:18:31;;;;;;;18.33;9.70;;;0.20;53.90;;;;;;4978144;28;20589;-59
2022/02/28 00:20:57;;;;;;;13.10;8.57;;;0.20;53.90;;;;;;4984763;28;20483;-59
2022/02/28 00:23:24;;;;;;;15.70;8.57;;;0.20;53.80;;;;;;4988192;28;20539;-57
2022/02/28 00:25:49;;;;;;;19.73;9.60;;;0.20;53.80;;;;;;4987075;28;20903;-60
2022/02/28 00:28:15;;;;;;;15.80;9.80;;;0.30;53.80;;;;;;4992120;28;20530;-59
2022/02/28 00:30:41;;;;;;;18.70;8.80;;;0.30;53.80;;;;;;4974308;28;20270;-59
2022/02/28 00:33:07;;;;;;;18.77;8.40;;;0.30;53.70;;;;;;4985673;28;20565;-58
2022/02/28 00:35:33;;;;;;;20.00;9.97;;;0.30;53.80;;;;;;4968710;28;20403;-59
2022/02/28 00:37:59;;;;;;;17.47;9.30;;;0.30;53.80;;;;;;4981690;28;20951;-55
2022/02/28 00:40:25;;;;;;;16.70;9.00;;;0.20;53.80;;;;;;4987534;28;20187;-58
2022/02/28 00:42:50;;;;;;;16.10;9.17;;;0.20;53.80;;;;;;4985703;28;20175;-64
2022/02/28 00:45:16;;;;;;;14.57;8.50;;;0.20;53.70;;;;;;5005065;28;20843;-59
2022/02/28 00:47:42;;;;;;;16.00;9.20;;;0.20;53.70;;;;;;4986924;28;20239;-58
2022/02/28 00:50:09;;;;;;;18.97;11.00;;;0.20;53.70;;;;;;4991061;28;20585;-59
2022/02/28 00:52:35;;;;;;;18.57;9.37;;;0.20;53.60;;;;;;4986522;28;20182;-56
2022/02/28 00:55:03;;;;;;;17.90;9.47;;;0.10;53.70;;;;;;4988091;28;20478;-62
2022/02/28 00:57:28;;;;;;;13.87;9.10;;;0.10;53.80;;;;;;4987336;28;20234;-58
2022/02/28 00:59:54;;;;;;;13.43;8.63;;;0.10;53.90;;;;;;4992818;28;20426;-59
2022/02/28 01:02:20;;;;;;;15.27;9.10;;;0.00;54.00;;;;;;4988073;28;20187;-56
2022/02/28 01:04:47;;;;;;;14.77;8.67;;;0.00;54.00;;;;;;5000353;28;20688;-59
2022/02/28 01:07:13;;;;;;;16.93;8.70;;;0.00;54.20;;;;;;4993590;28;20445;-59
2022/02/28 01:09:39;;;;;;;14.60;8.37;;;-0.10;54.20;;;;;;5004767;28;20477;-60
2022/02/28 01:12:06;;;;;;;21.07;10.10;;;-0.10;54.30;;;;;;4990186;28;20179;-56
2022/02/28 01:14:32;;;;;;;16.07;8.63;;;-0.10;54.30;;;;;;4998378;28;20456;-57
2022/02/28 01:16:57;;;;;;;15.93;9.10;;;-0.10;54.50;;;;;;5012509;28;20841;-59
2022/02/28 01:19:23;;;;;;;19.90;9.27;;;-0.10;54.50;;;;;;4990128;28;20210;-60
2022/02/28 01:21:49;;;;;;;13.70;8.93;;;-0.10;54.50;;;;;;4981372;28;20192;-59
2022/02/28 01:24:15;;;;;;;17.67;9.00;;;-0.10;54.70;;;;;;4999819;28;20425;-59
2022/02/28 01:26:41;;;;;;;19.83;9.50;;;-0.20;54.60;;;;;;4995614;28;20442;-57
2022/02/28 01:29:07;;;;;;;16.30;10.50;;;-0.20;54.50;;;;;;4991237;28;20186;-60
2022/02/28 01:31:33;;;;;;;17.13;8.77;;;-0.20;54.50;;;;;;4998275;28;20423;-57
2022/02/28 01:33:59;;;;;;;23.83;10.00;;;-0.20;54.50;;;;;;4999513;28;20216;-62
2022/02/28 01:36:24;;;;;;;18.13;9.20;;;-0.10;54.50;;;;;;4997750;28;20569;-62
2022/02/28 01:38:50;;;;;;;15.37;9.00;;;-0.20;54.40;;;;;;5011852;28;20241;-61
2022/02/28 01:41:16;;;;;;;13.03;9.07;;;-0.20;54.30;;;;;;5011615;28;20194;-61
2022/02/28 01:43:42;;;;;;;14.33;8.30;;;-0.20;54.50;;;;;;5011449;28;20184;-61
2022/02/28 01:46:07;;;;;;;19.47;8.80;;;-0.20;54.50;;;;;;5011450;28;20442;-58
2022/02/28 01:48:33;;;;;;;16.57;9.50;;;-0.20;54.60;;;;;;5010445;28;20222;-58
2022/02/28 01:50:59;;;;;;;15.47;9.47;;;-0.30;54.60;;;;;;5011594;28;20201;-59
2022/02/28 01:53:25;;;;;;;13.60;8.77;;;-0.30;54.50;;;;;;4997203;28;20687;-60
2022/02/28 01:55:50;;;;;;;23.67;9.40;;;-0.40;54.60;;;;;;4984519;28;20203;-61
2022/02/28 01:58:16;;;;;;;13.90;8.93;;;-0.40;54.80;;;;;;4991149;28;20297;-60
2022/02/28 02:00:42;;;;;;;17.43;8.40;;;-0.40;55.00;;;;;;4990570;28;20513;-56
2022/02/28 02:03:07;;;;;;;16.57;9.30;;;-0.50;55.10;;;;;;4988344;28;20189;-59
2022/02/28 02:05:33;;;;;;;20.83;9.30;;;-0.50;55.20;;;;;;4995676;28;20467;-59
2022/02/28 02:08:03;;;;;;;17.20;9.00;;;-0.60;55.20;;;;;;4989826;28;20210;-59
2022/02/28 02:10:29;;;;;;;19.93;9.93;;;-0.60;55.30;;;;;;4990970;28;20606;-58
2022/02/28 02:12:55;;;;;;;16.23;9.63;;;-0.60;55.50;;;;;;4989479;28;20706;-66
2022/02/28 02:15:21;;;;;;;15.90;8.70;;;-0.60;56.10;;;;;;4988298;28;20505;-60
2022/02/28 02:17:46;;;;;;;15.60;8.20;;;-0.60;55.80;;;;;;4990553;28;20851;-58
2022/02/28 02:20:18;;;;;;;17.80;9.40;;;-0.70;55.70;;;;;;4990757;28;20182;-57
2022/02/28 02:22:55;;;;;;;15.20;8.53;;;-0.70;55.70;;;;;;4991186;28;20182;-60
2022/02/28 02:25:21;;;;;;;16.13;8.53;;;-0.70;55.80;;;;;;4998626;28;20532;-61
2022/02/28 02:27:47;;;;;;;16.70;9.70;;;-0.80;55.80;;;;;;5017336;28;20448;-65
2022/02/28 02:30:14;;;;;;;18.27;9.70;;;-0.80;55.90;;;;;;5001614;28;20849;-59
2022/02/28 02:32:41;;;;;;;19.00;10.27;;;-0.90;55.90;;;;;;4986688;28;20265;-56
2022/02/28 02:35:08;;;;;;;17.30;9.90;;;-0.90;56.20;;;;;;4986007;28;21080;-59
2022/02/28 02:37:34;;;;;;;21.60;9.43;;;-0.90;56.40;;;;;;4985959;28;20958;-60
2022/02/28 02:39:59;;;;;;;16.07;10.17;;;-1.00;56.40;;;;;;4990661;28;20421;-60
2022/02/28 02:42:25;;;;;;;17.43;9.40;;;-1.00;56.50;;;;;;4991862;28;20233;-59
2022/02/28 02:44:51;;;;;;;14.73;9.27;;;-1.00;56.40;;;;;;4989566;28;20179;-59
2022/02/28 02:47:16;;;;;;;17.73;9.63;;;-1.00;56.40;;;;;;4990306;28;20185;-60
2022/02/28 02:49:42;;;;;;;16.63;7.87;;;-1.10;56.50;;;;;;5007591;28;20653;-59
2022/02/28 02:52:07;;;;;;;13.23;8.10;;;-1.10;56.70;;;;;;5004603;28;20211;-57
2022/02/28 02:54:33;;;;;;;17.37;7.67;;;-1.20;56.70;;;;;;4984952;28;20193;-60
2022/02/28 02:56:59;;;;;;;13.27;8.83;;;-1.20;56.80;;;;;;4989365;28;20273;-57
2022/02/28 02:59:25;;;;;;;13.33;7.93;;;-1.20;56.90;;;;;;4988688;28;20208;-57
2022/02/28 03:01:50;;;;;;;16.90;8.83;;;-1.30;57.00;;;;;;4989457;28;20177;-58
2022/02/28 03:04:16;;;;;;;14.77;9.23;;;-1.30;57.20;;;;;;4994098;28;20233;-59
2022/02/28 03:06:41;;;;;;;15.63;8.37;;;-1.30;57.30;;;;;;4989399;28;20745;-58
2022/02/28 03:09:14;;;;;;;15.60;9.00;;;-1.30;57.60;;;;;;4995821;28;20607;-61
2022/02/28 03:11:45;;;;;;;14.10;8.03;;;-1.30;57.80;;;;;;4990122;28;20262;-60
2022/02/28 03:14:11;;;;;;;19.40;8.80;;;-1.30;57.90;;;;;;4990386;28;20875;-56
2022/02/28 03:16:38;;;;;;;14.30;8.53;;;-1.30;58.00;;;;;;5002333;28;20450;-59
2022/02/28 03:19:04;;;;;;;13.73;8.93;;;-1.30;58.20;;;;;;4990174;28;20422;-57
2022/02/28 03:21:30;;;;;;;16.13;8.10;;;-1.30;58.60;;;;;;4998076;28;20418;-62
2022/02/28 03:23:57;;;;;;;12.07;7.87;;;-1.30;58.50;;;;;;4998199;28;20533;-62
2022/02/28 03:26:22;;;;;;;17.00;8.80;;;-1.40;58.50;;;;;;4999464;28;20456;-59
2022/02/28 03:28:48;;;;;;;16.13;8.30;;;-1.40;58.50;;;;;;5000896;28;20418;-59
2022/02/28 03:31:14;;;;;;;15.03;8.30;;;-1.40;58.40;;;;;;5005598;28;20194;-63
2022/02/28 03:33:40;;;;;;;18.37;9.23;;;-1.40;58.40;;;;;;5016927;28;20206;-56
2022/02/28 03:36:06;;;;;;;15.30;9.17;;;-1.40;58.50;;;;;;4998876;28;20189;-62
2022/02/28 03:38:31;;;;;;;13.97;8.33;;;-1.40;58.80;;;;;;5007375;28;20289;-61
2022/02/28 03:40:57;;;;;;;12.53;8.03;;;-1.50;58.70;;;;;;5013712;28;20505;-63
2022/02/28 03:43:22;;;;;;;13.27;7.90;;;-1.50;58.80;;;;;;4998651;28;20183;-59
2022/02/28 03:45:48;;;;;;;14.87;8.77;;;-1.50;58.80;;;;;;4992834;28;20198;-55
2022/02/28 03:48:14;;;;;;;14.17;9.10;;;-1.50;59.10;;;;;;4992338;28;20301;-58
2022/02/28 03:50:41;;;;;;;15.67;9.10;;;-1.60;59.20;;;;;;4996527;28;20442;-60
2022/02/28 03:53:07;;;;;;;18.73;9.30;;;-1.60;59.30;;;;;;4994826;28;20189;-61
2022/02/28 03:55:33;;;;;;;15.80;9.10;;;-1.70;59.50;;;;;;5023391;28;20437;-61
2022/02/28 03:57:59;;;;;;;21.77;8.47;;;-1.70;59.90;;;;;;5013983;28;20524;-65
2022/02/28 04:00:26;;;;;;;17.77;9.70;;;-1.70;60.30;;;;;;5014163;28;20450;-62
2022/02/28 04:02:51;;;;;;;15.47;8.67;;;-1.70;60.60;;;;;;5006256;28;20426;-60
2022/02/28 04:05:17;;;;;;;14.60;8.97;;;-1.70;60.80;;;;;;4991297;28;20491;-59
2022/02/28 04:07:44;;;;;;;15.90;8.40;;;-1.70;60.70;;;;;;4984974;28;20625;-59
2022/02/28 04:10:10;;;;;;;16.17;9.03;;;-1.70;60.70;;;;;;4990008;28;20277;-58
2022/02/28 04:12:36;;;;;;;22.33;10.17;;;-1.70;60.70;;;;;;5002247;28;20523;-62
2022/02/28 04:15:03;;;;;;;16.83;8.87;;;-1.70;60.80;;;;;;5018508;28;20567;-59
2022/02/28 04:17:28;;;;;;;18.97;9.70;;;-1.70;60.90;;;;;;5021717;28;20192;-57
2022/02/28 04:19:54;;;;;;;18.77;9.90;;;-1.70;61.00;;;;;;4992450;28;20910;-59
2022/02/28 04:22:22;;;;;;;15.53;9.10;;;-1.70;61.30;;;;;;4992986;28;20242;-58
2022/02/28 04:24:48;;;;;;;22.80;9.93;;;-1.70;61.60;;;;;;4991698;28;20212;-58
2022/02/28 04:27:13;;;;;;;19.30;10.30;;;-1.80;61.70;;;;;;4992675;28;20461;-58
2022/02/28 04:29:39;;;;;;;19.73;9.13;;;-1.80;61.80;;;;;;4991414;28;20264;-59
2022/02/28 04:32:05;;;;;;;18.83;9.90;;;-1.80;61.30;;;;;;4990638;28;20196;-59
2022/02/28 04:34:32;;;;;;;24.13;10.17;;;-1.80;61.20;;;;;;4992143;28;20542;-57
2022/02/28 04:36:58;;;;;;;15.80;9.20;;;-1.90;61.50;;;;;;4999055;28;20437;-56
2022/02/28 04:39:24;;;;;;;16.57;10.00;;;-1.90;61.80;;;;;;4988243;28;20849;-58
2022/02/28 04:41:50;;;;;;;18.80;10.07;;;-1.90;61.60;;;;;;4999795;28;20455;-59
2022/02/28 04:44:15;;;;;;;18.83;10.27;;;-2.00;61.70;;;;;;4991150;28;20759;-59
2022/02/28 04:46:41;;;;;;;26.20;10.43;;;-2.00;62.30;;;;;;4990729;28;20227;-56
2022/02/28 04:49:07;;;;;;;20.67;9.30;;;-2.00;62.60;;;;;;4990736;28;20540;-59
2022/02/28 04:51:32;;;;;;;23.43;10.87;;;-2.00;62.80;;;;;;4991966;28;20523;-57
2022/02/28 04:53:58;;;;;;;17.87;10.27;;;-2.10;63.10;;;;;;4991463;28;20682;-60
2022/02/28 04:56:24;;;;;;;19.70;10.67;;;-2.10;63.50;;;;;;4997014;28;20711;-57
2022/02/28 04:58:49;;;;;;;17.10;9.30;;;-2.20;64.20;;;;;;4990064;28;20678;-60
2022/02/28 05:01:15;;;;;;;18.73;9.70;;;-2.20;65.20;;;;;;4985848;28;20202;-59
2022/02/28 05:03:40;;;;;;;22.77;9.80;;;-2.20;65.70;;;;;;4993965;28;20210;-59
2022/02/28 05:06:06;;;;;;;15.60;9.37;;;-2.30;66.00;;;;;;5018498;23;20239;-58
2022/02/28 05:08:32;;;;;;;22.20;10.13;;;-2.20;66.70;;;;;;4979611;28;20186;-58
2022/02/28 05:10:57;;;;;;;23.30;9.53;;;-2.30;66.60;;;;;;4986534;28;20179;-59
2022/02/28 05:13:24;;;;;;;16.13;8.80;;;-2.20;66.40;;;;;;5000522;28;20184;-58
2022/02/28 05:15:50;;;;;;;18.50;10.20;;;-2.20;65.80;;;;;;5003522;28;20463;-59
2022/02/28 05:18:16;;;;;;;23.83;9.07;;;-2.20;65.80;;;;;;4998180;28;20509;-58
2022/02/28 05:20:42;;;;;;;22.80;11.03;;;-2.20;65.70;;;;;;4992714;28;20183;-59
2022/02/28 05:23:07;;;;;;;20.83;10.33;;;-2.20;65.70;;;;;;4982386;28;20465;-58
2022/02/28 05:25:33;;;;;;;23.77;10.20;;;-2.30;65.50;;;;;;4984256;28;20574;-57
2022/02/28 05:27:59;;;;;;;19.10;9.80;;;-2.30;65.20;;;;;;4983276;28;20258;-59
2022/02/28 05:30:25;;;;;;;17.67;9.90;;;-2.30;65.10;;;;;;4979077;28;20188;-58
2022/02/28 05:32:50;;;;;;;31.97;14.67;;;-2.30;65.10;;;;;;4981455;28;20430;-57
2022/02/28 05:35:16;;;;;;;21.13;10.60;;;-2.40;65.20;;;;;;4981470;28;20206;-59
2022/02/28 05:37:43;;;;;;;17.23;9.83;;;-2.40;65.60;;;;;;4983350;28;20186;-58
2022/02/28 05:40:10;;;;;;;19.20;9.30;;;-2.50;65.30;;;;;;4989036;28;20942;-59
2022/02/28 05:42:37;;;;;;;21.23;9.20;;;-2.50;65.90;;;;;;4985273;28;20440;-59
2022/02/28 05:45:07;;;;;;;16.50;8.67;;;-2.60;66.80;;;;;;4985159;28;20473;-58
2022/02/28 05:47:32;;;;;;;15.67;8.63;;;-2.60;67.60;;;;;;4982135;28;20480;-58
2022/02/28 05:49:58;;;;;;;18.93;9.50;;;-2.60;67.90;;;;;;4977409;28;20463;-59
2022/02/28 05:52:24;;;;;;;19.37;10.77;;;-2.60;68.80;;;;;;4994842;28;20188;-59
2022/02/28 05:54:50;;;;;;;22.20;10.83;;;-2.60;69.70;;;;;;4992159;28;21016;-59
2022/02/28 05:57:15;;;;;;;21.30;10.10;;;-2.60;70.00;;;;;;4987320;28;20199;-58
2022/02/28 05:59:41;;;;;;;17.70;10.57;;;-2.70;70.10;;;;;;4988350;28;20441;-59
2022/02/28 06:02:07;;;;;;;17.60;10.13;;;-2.70;70.60;;;;;;4986258;28;20177;-59
2022/02/28 06:04:33;;;;;;;17.67;9.60;;;-2.70;70.60;;;;;;4987635;28;20648;-58
2022/02/28 06:06:58;;;;;;;24.17;10.27;;;-2.70;70.70;;;;;;4986966;28;20456;-58
2022/02/28 06:09:24;;;;;;;27.43;10.10;;;-2.70;70.80;;;;;;4972233;28;20266;-59
2022/02/28 06:11:49;;;;;;;26.83;10.80;;;-2.70;71.10;;;;;;4981196;28;20178;-58
2022/02/28 06:14:16;;;;;;;22.43;11.90;;;-2.80;71.50;;;;;;4978491;28;20214;-59
2022/02/28 06:16:41;;;;;;;22.97;10.27;;;-2.80;71.80;;;;;;4972621;28;20214;-59
2022/02/28 06:19:07;;;;;;;20.80;10.00;;;-2.80;73.20;;;;;;4972813;28;20864;-59
2022/02/28 06:21:33;;;;;;;19.43;9.40;;;-2.80;74.00;;;;;;4975328;28;20658;-59
2022/02/28 06:23:58;;;;;;;21.10;10.27;;;-2.70;74.00;;;;;;4983389;28;20182;-58
2022/02/28 06:26:24;;;;;;;19.43;9.67;;;-2.80;74.10;;;;;;4980113;28;20237;-59
2022/02/28 06:28:50;;;;;;;20.03;10.77;;;-2.70;74.20;;;;;;4987878;28;20445;-59
2022/02/28 06:31:15;;;;;;;20.67;10.40;;;-2.70;74.80;;;;;;4981807;28;20788;-59
2022/02/28 06:33:41;;;;;;;20.67;10.60;;;-2.70;74.90;;;;;;4995387;28;20242;-58
2022/02/28 06:36:07;;;;;;;23.10;11.93;;;-2.70;75.00;;;;;;4977719;28;20214;-58
2022/02/28 06:38:32;;;;;;;19.53;10.40;;;-2.70;75.90;;;;;;4975626;28;20168;-59
2022/02/28 06:40:58;;;;;;;22.80;10.50;;;-2.70;75.40;;;;;;4989199;28;20179;-59
2022/02/28 06:43:24;;;;;;;20.63;10.90;;;-2.70;76.10;;;;;;4988432;28;20429;-58
2022/02/28 06:45:52;;;;;;;19.80;10.20;;;-2.70;77.10;;;;;;4990315;28;20198;-58
2022/02/28 06:48:18;;;;;;;19.53;9.50;;;-2.60;77.20;;;;;;4978088;28;20419;-60
2022/02/28 06:50:45;;;;;;;22.53;10.50;;;-2.60;77.70;;;;;;4975675;28;20542;-58
2022/02/28 06:53:11;;;;;;;27.70;10.50;;;-2.60;76.60;;;;;;4974892;28;20419;-59
2022/02/28 06:55:40;;;;;;;25.93;10.73;;;-2.60;76.20;;;;;;4971669;28;20982;-58
2022/02/28 06:58:07;;;;;;;21.13;10.87;;;-2.60;77.00;;;;;;4975239;28;20950;-58
2022/02/28 07:00:32;;;;;;;17.13;9.70;;;-2.60;77.50;;;;;;4999361;28;20442;-58
2022/02/28 07:02:58;;;;;;;22.27;11.67;;;-2.60;77.90;;;;;;4997026;28;20506;-58
2022/02/28 07:05:24;;;;;;;19.67;11.07;;;-2.50;77.90;;;;;;4992930;28;20268;-59
2022/02/28 07:07:49;;;;;;;23.67;11.30;;;-2.40;77.60;;;;;;4982976;28;20179;-58
2022/02/28 07:10:15;;;;;;;20.33;10.80;;;-2.40;77.40;;;;;;4984960;28;20194;-59
2022/02/28 07:12:41;;;;;;;23.87;10.40;;;-2.30;77.70;;;;;;4990246;28;20651;-57
2022/02/28 07:15:08;;;;;;;17.63;10.20;;;-2.20;77.80;;;;;;4995691;28;20689;-58
2022/02/28 07:17:34;;;;;;;19.97;10.93;;;-2.20;77.50;;;;;;4974368;28;20721;-57
2022/02/28 07:20:00;;;;;;;27.70;12.10;;;-2.00;77.20;;;;;;4978654;28;20514;-58
2022/02/28 07:22:25;;;;;;;21.00;12.13;;;-2.00;76.70;;;;;;4974936;28;20337;-58
2022/02/28 07:24:51;;;;;;;21.10;11.90;;;-1.80;76.30;;;;;;4987313;28;20182;-59
2022/02/28 07:27:17;;;;;;;18.30;10.60;;;-1.70;74.80;;;;;;4989008;28;20210;-58
2022/02/28 07:29:42;;;;;;;23.63;11.80;;;-1.60;73.70;;;;;;4988711;28;20234;-58
2022/02/28 07:32:08;;;;;;;32.60;15.17;;;-1.50;72.70;;;;;;4988120;28;20190;-58
2022/02/28 07:34:34;;;;;;;40.40;14.77;;;-1.40;72.30;;;;;;4979769;28;20679;-58
2022/02/28 07:36:59;;;;;;;40.50;16.17;;;-1.30;71.80;;;;;;4974364;28;20540;-58
2022/02/28 07:39:26;;;;;;;32.20;15.67;;;-1.30;71.60;;;;;;4980181;28;20589;-57
2022/02/28 07:41:52;;;;;;;37.23;15.30;;;-1.20;71.20;;;;;;4971148;28;20179;-58
2022/02/28 07:44:18;;;;;;;29.13;15.30;;;-1.10;71.10;;;;;;4986639;28;20504;-58
2022/02/28 07:46:44;;;;;;;29.90;14.33;;;-1.00;70.60;;;;;;4978150;28;20966;-59
2022/02/28 07:49:10;;;;;;;39.57;15.70;;;-1.00;70.90;;;;;;4974592;28;20282;-58
2022/02/28 07:51:35;;;;;;;49.03;21.00;;;-0.90;70.30;;;;;;4986928;28;20182;-58
2022/02/28 07:54:01;;;;;;;41.23;19.00;;;-0.90;70.20;;;;;;4988858;28;20457;-58
2022/02/28 07:56:27;;;;;;;33.90;16.73;;;-0.80;70.00;;;;;;4987142;28;20558;-57
2022/02/28 07:58:52;;;;;;;25.50;14.30;;;-0.70;69.50;;;;;;4987182;28;20440;-58
2022/02/28 08:01:18;;;;;;;33.00;14.80;;;-0.70;69.20;;;;;;4980973;28;20177;-58
2022/02/28 08:03:44;;;;;;;33.37;14.80;;;-0.60;68.80;;;;;;4978376;28;20182;-58
2022/02/28 08:06:09;;;;;;;24.93;13.13;;;-0.50;67.90;;;;;;4982052;28;21391;-59
2022/02/28 08:08:35;;;;;;;27.53;14.10;;;-0.40;67.50;;;;;;5002167;28;20585;-58
2022/02/28 08:11:02;;;;;;;34.10;14.60;;;-0.30;67.40;;;;;;4974560;28;20212;-59
2022/02/28 08:13:28;;;;;;;23.00;13.60;;;-0.30;67.70;;;;;;4981604;28;20528;-59
2022/02/28 08:15:55;;;;;;;24.33;13.60;;;-0.20;68.30;;;;;;4989832;28;20902;-57
2022/02/28 08:18:21;;;;;;;33.00;14.70;;;-0.10;68.00;;;;;;4996706;28;20167;-58
2022/02/28 08:20:46;;;;;;;33.57;14.27;;;-0.10;67.10;;;;;;4984360;28;20961;-59
2022/02/28 08:23:12;;;;;;;25.77;13.00;;;0.00;66.90;;;;;;4982827;28;20643;-58
2022/02/28 08:25:39;;;;;;;25.17;13.90;;;0.10;66.30;;;;;;4991274;28;20201;-59
2022/02/28 08:28:05;;;;;;;24.93;13.73;;;0.10;65.60;;;;;;4992416;28;20179;-56
2022/02/28 08:30:30;;;;;;;23.60;12.87;;;0.20;64.60;;;;;;4987788;28;20810;-58
2022/02/28 08:32:56;;;;;;;31.20;15.00;;;0.30;64.00;;;;;;4990685;28;20176;-57
2022/02/28 08:35:22;;;;;;;30.33;14.10;;;0.30;63.10;;;;;;4985494;28;20203;-59
2022/02/28 08:37:48;;;;;;;22.23;13.33;;;0.40;62.70;;;;;;4983115;28;20565;-59
2022/02/28 08:40:14;;;;;;;21.83;12.50;;;0.40;62.10;;;;;;4991215;28;20732;-60
2022/02/28 08:42:40;;;;;;;23.20;12.97;;;0.50;61.40;;;;;;4996167;28;20429;-59
2022/02/28 08:45:07;;;;;;;24.97;12.77;;;0.50;61.20;;;;;;4986493;28;20438;-59
2022/02/28 08:47:34;;;;;;;21.33;12.00;;;0.60;61.60;;;;;;4984644;28;20470;-59
2022/02/28 08:50:01;;;;;;;25.73;13.83;;;0.60;61.70;;;;;;4982926;28;20480;-59
2022/02/28 08:52:27;;;;;;;20.37;12.30;;;0.70;61.40;;;;;;4991484;28;20438;-58
2022/02/28 08:54:53;;;;;;;28.70;13.87;;;0.80;61.50;;;;;;4988360;28;20616;-59
2022/02/28 08:57:21;;;;;;;22.83;12.80;;;0.90;61.10;;;;;;4998724;28;20845;-60
2022/02/28 08:59:46;;;;;;;28.47;13.47;;;1.00;60.30;;;;;;4985868;28;20187;-59
2022/02/28 09:02:12;;;;;;;23.50;13.57;;;1.10;60.50;;;;;;4991616;28;20430;-59
2022/02/28 09:04:38;;;;;;;29.00;14.80;;;1.20;60.50;;;;;;5000313;28;20183;-59
2022/02/28 09:07:04;;;;;;;23.43;12.40;;;1.20;59.80;;;;;;4990654;28;20233;-58
2022/02/28 09:09:29;;;;;;;28.43;13.67;;;1.30;60.10;;;;;;4989404;28;20473;-59
2022/02/28 09:11:55;;;;;;;25.10;12.70;;;1.40;59.80;;;;;;4985504;28;20179;-59
2022/02/28 09:14:21;;;;;;;27.70;12.77;;;1.40;59.70;;;;;;4990753;28;20196;-59
2022/02/28 09:16:47;;;;;;;28.37;12.53;;;1.50;59.30;;;;;;4993349;28;20195;-60
2022/02/28 09:19:12;;;;;;;23.37;11.60;;;1.60;58.80;;;;;;4989307;28;20723;-59
2022/02/28 09:21:39;;;;;;;30.27;13.50;;;1.60;58.50;;;;;;4990460;28;20551;-59
2022/02/28 09:24:05;;;;;;;21.97;12.73;;;1.70;58.40;;;;;;4979869;28;20270;-58
2022/02/28 09:26:31;;;;;;;26.83;12.50;;;1.80;58.90;;;;;;4985187;28;20453;-58
2022/02/28 09:28:56;;;;;;;28.33;12.30;;;1.90;59.10;;;;;;4983519;28;20430;-59
2022/02/28 09:31:22;;;;;;;25.70;12.77;;;2.10;59.50;;;;;;4987416;28;20183;-60
2022/02/28 09:33:48;;;;;;;28.93;13.00;;;2.20;59.00;;;;;;4987158;28;20672;-59
2022/02/28 09:36:14;;;;;;;28.30;12.47;;;2.40;58.20;;;;;;4990479;28;20550;-60
2022/02/28 09:38:40;;;;;;;23.33;12.60;;;2.40;57.10;;;;;;4993750;28;20183;-60
2022/02/28 09:41:06;;;;;;;24.50;13.07;;;2.50;57.20;;;;;;4987699;28;20419;-59
2022/02/28 09:43:33;;;;;;;24.83;11.50;;;2.60;57.10;;;;;;4990473;28;20420;-59
2022/02/28 09:46:02;;;;;;;28.87;13.43;;;2.70;57.30;;;;;;4986391;28;20458;-59
2022/02/28 09:48:29;;;;;;;31.33;13.03;;;2.90;57.30;;;;;;4982751;28;20425;-60
2022/02/28 09:50:54;;;;;;;27.30;13.60;;;3.10;56.70;;;;;;4981197;28;20588;-59
2022/02/28 09:53:20;;;;;;;21.90;12.30;;;3.20;56.00;;;;;;4990011;28;20416;-60
2022/02/28 09:55:47;;;;;;;20.07;10.80;;;3.30;56.00;;;;;;4987369;28;20696;-59
2022/02/28 09:58:12;;;;;;;31.93;12.67;;;3.40;56.20;;;;;;4985724;28;20177;-59
2022/02/28 10:00:46;;;;;;;30.73;12.37;;;3.60;55.70;;;;;;4984605;28;20435;-59
2022/02/28 10:03:12;;;;;;;19.40;11.27;;;3.60;55.20;;;;;;4982572;28;20207;-60
2022/02/28 10:05:37;;;;;;;23.30;12.80;;;3.80;54.90;;;;;;4984020;28;20459;-60
2022/02/28 10:08:06;;;;;;;20.87;12.20;;;3.90;54.50;;;;;;4981768;28;20806;-59
2022/02/28 10:10:34;;;;;;;17.37;12.30;;;3.90;53.50;;;;;;4991401;28;20174;-60
2022/02/28 10:13:01;;;;;;;22.97;11.50;;;4.00;53.20;;;;;;4977302;28;20436;-61
2022/02/28 10:15:27;;;;;;;20.00;11.80;;;4.10;53.50;;;;;;4981144;28;20468;-60
2022/02/28 10:18:02;;;;;;;19.60;11.33;;;4.20;53.50;;;;;;4984469;28;20913;-60
2022/02/28 10:20:37;;;;;;;22.40;11.33;;;4.30;53.20;;;;;;4992637;28;20506;-60
2022/02/28 10:23:08;;;;;;;18.73;11.53;;;4.40;52.50;;;;;;4994028;28;20440;-60
2022/02/28 10:25:35;;;;;;;17.00;11.13;;;4.50;52.00;;;;;;4983458;28;20451;-60
2022/02/28 10:28:07;;;;;;;24.87;11.07;;;4.50;52.00;;;;;;4982487;28;20442;-61
2022/02/28 10:30:33;;;;;;;17.83;9.60;;;4.70;52.30;;;;;;4985928;28;20435;-61
2022/02/28 10:33:07;;;;;;;30.57;10.57;;;4.90;52.10;;;;;;4979025;28;20432;-60
2022/02/28 10:36:01;;;;;;;25.63;10.10;;;5.10;50.80;;;;;;4989116;28;20211;-61
2022/02/28 10:38:33;;;;;;;15.57;8.97;;;5.30;50.80;;;;;;4981311;28;20455;-61
2022/02/28 10:41:00;;;;;;;16.33;10.10;;;5.50;50.20;;;;;;4986519;28;20428;-60
2022/02/28 10:43:38;;;;;;;15.43;9.37;;;5.60;49.70;;;;;;4990690;28;20455;-60
2022/02/28 10:46:21;;;;;;;20.47;9.87;;;5.70;47.60;;;;;;4981412;28;20438;-60
2022/02/28 10:48:54;;;;;;;20.37;8.57;;;5.70;47.80;;;;;;4985032;28;20951;-61
2022/02/28 10:51:20;;;;;;;18.30;9.03;;;5.90;48.30;;;;;;4980724;28;21014;-60
2022/02/28 10:53:45;;;;;;;19.90;8.73;;;6.00;48.10;;;;;;4985034;28;21307;-61
2022/02/28 10:56:11;;;;;;;17.10;9.87;;;6.20;48.30;;;;;;4977014;28;20201;-60
2022/02/28 10:58:37;;;;;;;13.57;8.23;;;6.40;47.90;;;;;;4979399;28;20788;-61
2022/02/28 11:01:09;;;;;;;16.00;9.67;;;6.50;47.80;;;;;;4994668;28;20630;-61
2022/02/28 11:03:48;;;;;;;15.60;9.20;;;6.70;47.00;;;;;;4987415;28;20669;-60
2022/02/28 11:06:23;;;;;;;16.37;9.53;;;6.90;46.40;;;;;;5020410;22;20497;-58
2022/02/28 11:08:49;;;;;;;19.40;9.33;;;7.00;45.90;;;;;;5014572;28;20414;-57
2022/02/28 11:11:16;;;;;;;14.20;9.30;;;7.10;45.00;;;;;;4996775;28;20726;-58
2022/02/28 11:13:42;;;;;;;18.67;10.60;;;7.10;45.00;;;;;;5003901;28;20459;-56
2022/02/28 11:16:09;;;;;;;21.67;10.40;;;7.20;44.70;;;;;;5001411;28;21076;-57
2022/02/28 11:18:37;;;;;;;14.60;9.63;;;7.30;45.00;;;;;;4977990;28;20778;-56
2022/02/28 11:21:03;;;;;;;14.80;8.87;;;7.50;45.20;;;;;;4973066;28;20465;-55
2022/02/28 11:23:29;;;;;;;14.53;9.40;;;7.80;44.50;;;;;;4986592;28;20949;-57
2022/02/28 11:25:56;;;;;;;14.27;9.30;;;8.00;43.20;;;;;;4980348;28;20997;-56
2022/02/28 11:28:22;;;;;;;13.77;9.00;;;8.40;43.10;;;;;;4976023;28;20432;-57
2022/02/28 11:30:48;;;;;;;16.50;9.90;;;8.70;43.20;;;;;;4981409;28;20986;-57
2022/02/28 11:33:16;;;;;;;16.50;10.70;;;9.20;41.90;;;;;;4982139;28;20654;-59
2022/02/28 11:35:53;;;;;;;17.47;8.10;;;9.70;40.80;;;;;;4977334;28;20566;-59
2022/02/28 11:38:19;;;;;;;11.60;7.67;;;10.40;38.70;;;;;;4977164;28;20431;-58
2022/02/28 11:41:05;;;;;;;13.03;8.17;;;10.90;37.40;;;;;;4986206;28;20505;-56
2022/02/28 11:43:43;;;;;;;16.10;9.23;;;11.40;36.10;;;;;;4984529;28;20225;-60
2022/02/28 11:46:09;;;;;;;12.07;8.00;;;11.70;35.30;;;;;;4977317;28;20530;-58
2022/02/28 11:48:36;;;;;;;13.40;8.60;;;11.90;34.90;;;;;;4973973;28;20783;-58
2022/02/28 11:51:05;;;;;;;10.43;7.83;;;12.20;34.20;;;;;;4982002;28;20174;-58
2022/02/28 11:53:33;;;;;;;11.57;8.47;;;12.60;34.10;;;;;;4979158;28;21060;-59
2022/02/28 11:55:59;;;;;;;10.40;8.00;;;13.00;33.40;;;;;;4985701;28;20759;-61
2022/02/28 11:58:28;;;;;;;11.57;7.70;;;13.40;32.50;;;;;;4986399;28;20759;-56
2022/02/28 12:01:11;;;;;;;15.90;8.63;;;13.80;32.70;;;;;;4979056;28;20174;-59
2022/02/28 12:03:37;;;;;;;9.70;7.30;;;14.30;31.30;;;;;;4977362;28;20452;-58
2022/02/28 12:06:03;;;;;;;11.33;7.70;;;14.60;30.60;;;;;;4983498;28;20459;-59
2022/02/28 12:08:39;;;;;;;11.33;7.47;;;14.80;30.00;;;;;;4990237;28;20634;-59
2022/02/28 12:11:20;;;;;;;12.30;8.20;;;15.20;30.20;;;;;;4979036;28;20428;-60
2022/02/28 12:14:02;;;;;;;10.73;7.50;;;15.80;29.50;;;;;;4985900;28;20797;-61
2022/02/28 12:19:34;;;;;;;11.60;7.53;;;16.30;28.20;;;;;;4959305;28;20436;-60
2022/02/28 12:22:02;;;;;;;13.77;8.40;;;16.70;27.70;;;;;;4982409;28;20428;-61
2022/02/28 12:24:56;;;;;;;13.93;7.57;;;17.00;27.30;;;;;;4981044;28;20432;-61
2022/02/28 12:27:36;;;;;;;11.97;8.00;;;17.30;26.60;;;;;;4978779;28;20447;-60
2022/02/28 12:30:36;;;;;;;9.63;6.97;;;17.20;26.50;;;;;;4977594;28;20436;-58
2022/02/28 12:33:02;;;;;;;13.30;8.27;;;17.30;26.00;;;;;;4990926;28;20441;-59
2022/02/28 12:35:39;;;;;;;9.00;7.60;;;17.20;26.40;;;;;;4981489;28;21000;-58
2022/02/28 12:38:06;;;;;;;13.23;7.20;;;17.10;26.60;;;;;;4978351;28;20172;-57